createdAt,value
2023-04-22T00:02:08.709Z,13.10
2023-04-22T00:04:38.496Z,13.20
2023-04-22T00:07:06.663Z,13.20
2023-04-22T00:09:34.745Z,13.20
2023-04-22T00:12:03.966Z,13.30
2023-04-22T00:14:32.188Z,13.30
2023-04-22T00:17:00.780Z,13.40
2023-04-22T00:19:28.835Z,13.30
2023-04-22T00:21:58.260Z,13.30
2023-04-22T00:24:27.030Z,13.20
2023-04-22T00:26:55.013Z,13.30
2023-04-22T00:29:23.038Z,13.30
2023-04-22T00:31:51.357Z,13.30
2023-04-22T00:34:19.725Z,13.30
2023-04-22T00:36:47.799Z,13.30
2023-04-22T00:39:17.226Z,13.30
2023-04-22T00:41:45.618Z,13.20
2023-04-22T00:44:13.873Z,13.30
2023-04-22T00:46:42.112Z,13.20
2023-04-22T00:49:10.397Z,13.30
2023-04-22T00:51:38.524Z,13.30
2023-04-22T00:54:06.900Z,13.40
2023-04-22T00:56:40.469Z,13.40
2023-04-22T00:59:10.857Z,13.40
2023-04-22T01:01:42.540Z,13.40
2023-04-22T01:04:12.797Z,13.30
2023-04-22T01:06:42.183Z,13.20
2023-04-22T01:09:10.295Z,13.20
2023-04-22T01:11:39.800Z,13.20
2023-04-22T01:14:07.817Z,13.00
2023-04-22T01:16:38.961Z,12.80
2023-04-22T01:19:08.306Z,12.60
2023-04-22T01:21:37.581Z,12.40
2023-04-22T01:24:12.123Z,12.10
2023-04-22T01:26:40.865Z,12.00
2023-04-22T01:29:08.949Z,11.90
2023-04-22T01:31:37.821Z,11.80
2023-04-22T01:34:06.093Z,11.80
2023-04-22T01:36:34.806Z,11.80
2023-04-22T01:39:03.068Z,11.80
2023-04-22T01:41:32.671Z,11.80
2023-04-22T01:44:04.168Z,11.90
2023-04-22T01:46:32.286Z,12.00
2023-04-22T01:49:00.371Z,12.20
2023-04-22T01:51:28.425Z,12.30
2023-04-22T01:53:56.447Z,12.50
2023-04-22T01:56:24.548Z,12.50
2023-04-22T01:58:53.922Z,12.60
2023-04-22T02:01:21.986Z,12.60
2023-04-22T02:03:50.066Z,12.50
2023-04-22T02:06:19.470Z,12.40
2023-04-22T02:08:47.570Z,12.30
2023-04-22T02:11:15.586Z,12.20
2023-04-22T02:13:43.967Z,12.10
2023-04-22T02:16:13.684Z,12.10
2023-04-22T02:18:41.693Z,11.90
2023-04-22T02:21:09.933Z,11.80
2023-04-22T02:23:38.812Z,11.60
2023-04-22T02:26:06.960Z,11.50
2023-04-22T02:28:35.048Z,11.40
2023-04-22T02:31:03.126Z,11.40
2023-04-22T02:33:32.454Z,11.30
2023-04-22T02:36:00.420Z,11.10
2023-04-22T02:38:28.520Z,11.00
2023-04-22T02:40:56.537Z,10.80
2023-04-22T02:43:24.528Z,10.70
2023-04-22T02:45:52.715Z,10.60
2023-04-22T02:48:20.763Z,10.50
2023-04-22T02:50:50.203Z,10.50
2023-04-22T02:53:18.210Z,10.40
2023-04-22T02:55:46.196Z,10.40
2023-04-22T02:58:14.194Z,10.40
2023-04-22T03:00:42.277Z,10.40
2023-04-22T03:03:10.794Z,10.40
2023-04-22T03:05:39.109Z,10.30
2023-04-22T03:08:08.813Z,10.20
2023-04-22T03:10:36.797Z,10.10
2023-04-22T03:13:04.766Z,10.00
2023-04-22T03:15:32.814Z,10.10
2023-04-22T03:18:00.902Z,10.10
2023-04-22T03:20:29.032Z,10.00
2023-04-22T03:22:57.115Z,9.90
2023-04-22T03:25:26.570Z,9.80
2023-04-22T03:27:54.674Z,9.70
2023-04-22T03:30:22.968Z,9.60
2023-04-22T03:32:51.101Z,9.40
2023-04-22T03:35:19.294Z,9.30
2023-04-22T03:37:47.559Z,9.20
2023-04-22T03:40:16.053Z,9.10
2023-04-22T03:42:45.526Z,9.10
2023-04-22T03:45:13.577Z,9.20
2023-04-22T03:47:41.633Z,9.20
2023-04-22T03:50:10.585Z,9.30
2023-04-22T03:52:38.679Z,9.40
2023-04-22T03:55:07.359Z,9.70
2023-04-22T03:57:35.808Z,10.00
2023-04-22T04:00:06.237Z,10.10
2023-04-22T04:02:34.535Z,10.10
2023-04-22T04:05:03.464Z,10.20
2023-04-22T04:07:31.771Z,10.30
2023-04-22T04:09:59.781Z,10.30
2023-04-22T04:12:27.796Z,10.30
2023-04-22T04:14:55.810Z,10.30
2023-04-22T04:17:26.371Z,10.30
2023-04-22T04:19:54.712Z,10.40
2023-04-22T04:22:22.963Z,10.60
2023-04-22T04:24:51.093Z,10.70
2023-04-22T04:27:19.198Z,10.80
2023-04-22T04:29:47.619Z,10.80
2023-04-22T04:32:15.587Z,10.80
2023-04-22T04:34:45.015Z,10.70
2023-04-22T04:37:13.212Z,10.50
2023-04-22T04:39:42.411Z,10.40
2023-04-22T04:42:12.090Z,10.20
2023-04-22T04:44:40.073Z,10.20
2023-04-22T04:47:08.032Z,10.30
2023-04-22T04:49:40.187Z,10.70
2023-04-22T04:52:11.729Z,10.80
2023-04-22T04:54:40.520Z,10.90
2023-04-22T04:57:10.178Z,11.00
2023-04-22T04:59:38.451Z,11.00
2023-04-22T05:02:06.982Z,11.00
2023-04-22T05:04:35.231Z,10.90
2023-04-22T05:07:04.190Z,10.80
2023-04-22T05:09:37.415Z,10.60
2023-04-22T05:12:07.185Z,10.50
2023-04-22T05:14:35.262Z,10.40
2023-04-22T05:17:04.179Z,10.40
2023-04-22T05:19:32.815Z,10.30
2023-04-22T05:22:01.109Z,10.30
2023-04-22T05:24:29.100Z,10.40
2023-04-22T05:26:58.625Z,10.70
2023-04-22T05:29:26.736Z,10.80
2023-04-22T05:31:54.831Z,10.90
2023-04-22T05:34:22.978Z,11.00
2023-04-22T05:36:50.938Z,11.10
2023-04-22T05:39:18.971Z,11.20
2023-04-22T05:41:47.291Z,11.20
2023-04-22T05:44:17.626Z,11.20
2023-04-22T05:46:45.924Z,11.20
2023-04-22T05:49:13.953Z,11.30
2023-04-22T05:51:41.992Z,11.30
2023-04-22T05:54:09.978Z,11.50
2023-04-22T05:56:38.217Z,11.50
2023-04-22T05:59:06.305Z,11.50
2023-04-22T06:01:37.235Z,11.70
2023-04-22T06:04:06.474Z,11.90
2023-04-22T06:06:35.068Z,12.20
2023-04-22T06:09:03.134Z,12.50
2023-04-22T06:11:32.160Z,13.00
2023-04-22T06:14:00.253Z,13.40
2023-04-22T06:16:28.557Z,13.90
2023-04-22T06:18:57.904Z,14.50
2023-04-22T06:21:25.849Z,15.20
2023-04-22T06:23:53.838Z,16.70
2023-04-22T06:26:22.190Z,18.00
2023-04-22T06:28:50.350Z,18.40
2023-04-22T06:31:19.729Z,18.40
2023-04-22T06:33:49.078Z,18.10
2023-04-22T06:36:18.428Z,17.70
2023-04-22T06:38:46.360Z,16.70
2023-04-22T06:41:15.188Z,16.30
2023-04-22T06:43:43.101Z,16.30
2023-04-22T06:46:11.608Z,16.70
2023-04-22T06:48:40.376Z,17.00
2023-04-22T06:51:08.411Z,17.10
2023-04-22T06:53:37.773Z,17.00
2023-04-22T06:56:06.414Z,16.70
2023-04-22T06:58:35.453Z,16.30
2023-04-22T07:01:03.757Z,16.10
2023-04-22T07:03:32.165Z,16.10
2023-04-22T07:06:00.695Z,16.00
2023-04-22T07:08:28.888Z,15.50
2023-04-22T07:10:58.763Z,15.40
2023-04-22T07:13:27.285Z,15.60
2023-04-22T07:15:55.403Z,15.80
2023-04-22T07:18:23.573Z,16.10
2023-04-22T07:20:51.746Z,16.40
2023-04-22T07:23:20.022Z,16.30
2023-04-22T07:25:48.222Z,16.30
2023-04-22T07:28:17.823Z,16.30
2023-04-22T07:30:46.100Z,16.20
2023-04-22T07:33:14.239Z,16.10
2023-04-22T07:35:42.418Z,16.30
2023-04-22T07:38:12.104Z,16.20
2023-04-22T07:40:41.593Z,16.00
2023-04-22T07:43:09.752Z,15.70
2023-04-22T07:45:39.352Z,15.40
2023-04-22T07:48:07.435Z,15.30
2023-04-22T07:50:37.401Z,15.30
2023-04-22T07:53:07.032Z,15.40
2023-04-22T07:55:35.251Z,15.60
2023-04-22T07:58:06.372Z,15.80
2023-04-22T08:00:35.075Z,16.00
2023-04-22T08:03:04.812Z,16.10
2023-04-22T08:05:33.244Z,16.40
2023-04-22T08:08:01.352Z,16.60
2023-04-22T08:10:29.411Z,16.60
2023-04-22T08:12:57.560Z,16.90
2023-04-22T08:15:25.723Z,17.00
2023-04-22T08:17:53.810Z,17.20
2023-04-22T08:20:23.654Z,17.10
2023-04-22T08:22:57.225Z,17.10
2023-04-22T08:25:25.374Z,16.90
2023-04-22T08:27:53.529Z,17.00
2023-04-22T08:30:21.723Z,17.00
2023-04-22T08:32:49.920Z,16.80
2023-04-22T08:35:18.158Z,16.90
2023-04-22T08:37:48.031Z,16.90
2023-04-22T08:40:16.230Z,16.70
2023-04-22T08:42:45.769Z,16.60
2023-04-22T08:45:14.849Z,16.80
2023-04-22T08:47:43.813Z,17.00
2023-04-22T08:50:12.580Z,17.40
2023-04-22T08:52:40.732Z,17.40
2023-04-22T08:55:10.759Z,17.50
2023-04-22T08:57:40.427Z,17.50
2023-04-22T09:00:10.105Z,17.60
2023-04-22T09:02:39.132Z,17.60
2023-04-22T09:05:09.613Z,17.60
2023-04-22T09:07:39.591Z,17.70
2023-04-22T09:10:11.997Z,17.80
2023-04-22T09:12:42.402Z,18.00
2023-04-22T09:15:11.727Z,18.30
2023-04-22T09:17:39.974Z,18.30
2023-04-22T09:20:09.857Z,18.10
2023-04-22T09:22:44.337Z,18.30
2023-04-22T09:25:21.958Z,18.40
2023-04-22T09:27:51.578Z,18.40
2023-04-22T09:30:20.436Z,18.80
2023-04-22T09:32:56.105Z,19.00
2023-04-22T09:35:32.248Z,19.30
2023-04-22T09:38:01.863Z,19.20
2023-04-22T09:40:32.504Z,19.30
2023-04-22T09:43:03.138Z,19.30
2023-04-22T09:45:33.339Z,19.20
2023-04-22T09:48:04.159Z,19.10
2023-04-22T09:50:32.407Z,19.10
2023-04-22T09:53:02.471Z,19.20
2023-04-22T09:55:34.474Z,19.40
2023-04-22T09:58:08.288Z,19.60
2023-04-22T10:00:37.924Z,19.80
2023-04-22T10:03:08.937Z,20.00
2023-04-22T10:05:38.903Z,20.10
2023-04-22T10:08:08.333Z,20.40
2023-04-22T10:10:38.941Z,20.30
2023-04-22T10:13:08.197Z,20.30
2023-04-22T10:15:39.885Z,20.30
2023-04-22T10:18:11.167Z,20.60
2023-04-22T10:20:42.788Z,20.70
2023-04-22T10:23:15.417Z,20.60
2023-04-22T10:25:49.093Z,20.80
2023-04-22T10:28:18.595Z,20.60
2023-04-22T10:30:46.832Z,20.50
2023-04-22T10:33:37.275Z,20.60
2023-04-22T10:36:11.257Z,20.80
2023-04-22T10:38:40.962Z,20.70
2023-04-22T10:41:15.384Z,20.60
2023-04-22T10:43:45.284Z,20.50
2023-04-22T10:46:47.035Z,20.50
2023-04-22T10:49:20.623Z,20.60
2023-04-22T10:51:50.429Z,20.90
2023-04-22T10:54:52.671Z,21.10
2023-04-22T10:57:24.054Z,21.10
2023-04-22T10:59:56.330Z,21.00
2023-04-22T11:02:26.132Z,21.10
2023-04-22T11:05:20.090Z,21.30
2023-04-22T11:07:50.566Z,21.30
2023-04-22T11:10:37.388Z,21.40
2023-04-22T11:13:08.132Z,21.40
2023-04-22T11:15:38.706Z,21.60
2023-04-22T11:18:18.806Z,21.80
2023-04-22T11:20:48.462Z,21.90
2023-04-22T11:23:21.207Z,22.20
2023-04-22T11:25:49.221Z,22.20
2023-04-22T11:28:23.770Z,22.20
2023-04-22T11:30:52.653Z,22.20
2023-04-22T11:33:21.705Z,22.10
2023-04-22T11:35:52.182Z,22.00
2023-04-22T11:38:23.369Z,22.00
2023-04-22T11:40:51.516Z,21.90
2023-04-22T11:43:21.187Z,21.90
2023-04-22T11:45:49.464Z,21.70
2023-04-22T11:48:17.652Z,21.60
2023-04-22T11:50:45.857Z,21.60
2023-04-22T11:53:18.344Z,21.90
2023-04-22T11:55:51.181Z,21.90
2023-04-22T11:58:25.438Z,22.10
2023-04-22T12:03:32.444Z,22.30
2023-04-22T12:06:02.218Z,22.40
2023-04-22T12:08:33.435Z,22.50
2023-04-22T12:11:03.764Z,22.50
2023-04-22T12:13:35.071Z,22.30
2023-04-22T12:16:05.296Z,22.20
2023-04-22T12:18:34.624Z,22.40
2023-04-22T12:21:11.302Z,22.90
2023-04-22T12:23:44.982Z,22.80
2023-04-22T12:26:14.247Z,22.70
2023-04-22T12:28:44.756Z,22.60
2023-04-22T12:31:13.419Z,22.60
2023-04-22T12:33:41.962Z,22.60
2023-04-22T12:36:10.897Z,22.80
2023-04-22T12:38:39.223Z,22.80
2023-04-22T12:41:08.452Z,22.60
2023-04-22T12:43:37.793Z,22.60
2023-04-22T12:46:08.606Z,22.70
2023-04-22T12:48:37.475Z,22.90
2023-04-22T12:51:06.628Z,22.80
2023-04-22T12:53:35.126Z,22.50
2023-04-22T12:56:03.268Z,22.50
2023-04-22T12:58:31.319Z,22.40
2023-04-22T13:00:59.410Z,22.30
2023-04-22T13:03:29.367Z,22.20
2023-04-22T13:05:57.477Z,22.40
2023-04-22T13:08:26.042Z,22.50
2023-04-22T13:10:54.277Z,22.90
2023-04-22T13:13:22.524Z,23.00
2023-04-22T13:15:53.894Z,22.80
2023-04-22T13:18:23.214Z,22.70
2023-04-22T13:20:53.002Z,22.60
2023-04-22T13:23:22.061Z,22.60
2023-04-22T13:25:50.584Z,22.50
2023-04-22T13:28:18.826Z,22.50
2023-04-22T13:30:46.907Z,22.40
2023-04-22T13:33:15.133Z,22.40
2023-04-22T13:35:43.257Z,22.20
2023-04-22T13:38:12.722Z,22.10
2023-04-22T13:40:40.882Z,22.00
2023-04-22T13:43:10.156Z,22.00
2023-04-22T13:45:38.421Z,22.00
2023-04-22T13:48:06.753Z,21.90
2023-04-22T13:50:35.246Z,21.80
2023-04-22T13:53:04.896Z,21.60
2023-04-22T13:55:35.219Z,21.40
2023-04-22T13:58:05.424Z,21.30
2023-04-22T14:00:34.416Z,21.10
2023-04-22T14:03:02.876Z,20.90
2023-04-22T14:05:31.212Z,20.70
2023-04-22T14:08:01.200Z,20.50
2023-04-22T14:10:29.353Z,20.30
2023-04-22T14:12:58.921Z,20.30
2023-04-22T14:15:27.063Z,20.20
2023-04-22T14:17:55.308Z,20.20
2023-04-22T14:20:26.149Z,20.10
2023-04-22T14:22:54.363Z,20.10
2023-04-22T14:25:22.724Z,20.10
2023-04-22T14:27:50.852Z,20.10
2023-04-22T14:30:21.839Z,20.00
2023-04-22T14:32:49.989Z,19.90
2023-04-22T14:35:18.941Z,20.00
2023-04-22T14:37:47.176Z,20.00
2023-04-22T14:40:15.515Z,20.00
2023-04-22T14:42:43.711Z,19.90
2023-04-22T14:45:14.605Z,19.80
2023-04-22T14:47:44.131Z,19.80
2023-04-22T14:50:12.404Z,19.70
2023-04-22T14:52:40.579Z,19.60
2023-04-22T14:55:19.462Z,19.60
2023-04-22T14:57:51.947Z,19.80
2023-04-22T15:00:20.302Z,20.00
2023-04-22T15:02:50.250Z,20.30
2023-04-22T15:05:18.550Z,20.40
2023-04-22T15:07:47.132Z,20.50
2023-04-22T15:10:15.518Z,20.60
2023-04-22T15:12:43.662Z,20.70
2023-04-22T15:15:13.901Z,20.90
2023-04-22T15:17:42.577Z,20.90
2023-04-22T15:20:13.113Z,20.80
2023-04-22T15:22:42.065Z,20.60
2023-04-22T15:25:11.021Z,20.40
2023-04-22T15:27:39.644Z,20.50
2023-04-22T15:30:09.000Z,20.60
2023-04-22T15:32:39.082Z,20.60
2023-04-22T15:35:09.458Z,20.50
2023-04-22T15:37:38.876Z,20.50
2023-04-22T15:40:08.706Z,20.50
2023-04-22T15:42:37.026Z,20.30
2023-04-22T15:45:05.663Z,20.00
2023-04-22T15:47:34.768Z,19.90
2023-04-22T15:50:06.680Z,19.70
2023-04-22T15:52:35.167Z,19.70
2023-04-22T15:55:04.916Z,19.70
2023-04-22T15:57:34.977Z,19.70
2023-04-22T16:00:11.753Z,19.70
2023-04-22T16:02:41.873Z,19.70
2023-04-22T16:05:11.471Z,19.80
2023-04-22T16:07:40.340Z,19.70
2023-04-22T16:10:16.407Z,19.80
2023-04-22T16:12:44.632Z,19.60
2023-04-22T16:15:12.984Z,19.50
2023-04-22T16:17:41.308Z,19.30
2023-04-22T16:20:11.004Z,19.30
2023-04-22T16:22:39.096Z,19.20
2023-04-22T16:25:10.375Z,19.20
2023-04-22T16:27:38.503Z,19.20
2023-04-22T16:30:07.674Z,19.20
2023-04-22T16:32:35.968Z,19.00
2023-04-22T16:35:04.349Z,19.00
2023-04-22T16:37:32.486Z,18.80
2023-04-22T16:40:00.836Z,18.70
2023-04-22T16:42:30.801Z,18.70
2023-04-22T16:44:59.003Z,18.60
2023-04-22T16:47:27.597Z,18.50
2023-04-22T16:49:55.884Z,18.50
2023-04-22T16:52:23.991Z,18.40
2023-04-22T16:54:52.250Z,18.30
2023-04-22T16:57:20.523Z,18.30
2023-04-22T16:59:50.415Z,18.30
2023-04-22T17:02:19.055Z,18.30
2023-04-22T17:04:47.182Z,18.30
2023-04-22T17:07:15.625Z,18.20
2023-04-22T17:09:43.939Z,18.10
2023-04-22T17:12:12.306Z,18.00
2023-04-22T17:14:40.540Z,18.00
2023-04-22T17:17:10.117Z,17.90
2023-04-22T17:19:38.449Z,17.70
2023-04-22T17:22:06.803Z,17.60
2023-04-22T17:24:34.904Z,17.40
2023-04-22T17:27:03.062Z,17.30
2023-04-22T17:29:31.353Z,17.20
2023-04-22T17:31:59.475Z,17.20
2023-04-22T17:34:29.486Z,17.10
2023-04-22T17:36:57.498Z,17.10
2023-04-22T17:39:25.540Z,17.00
2023-04-22T17:41:53.863Z,17.00
2023-04-22T17:44:21.948Z,16.90
2023-04-22T17:46:50.035Z,17.00
2023-04-22T17:49:18.280Z,16.90
2023-04-22T17:51:47.859Z,16.90
2023-04-22T17:54:16.233Z,16.90
2023-04-22T17:56:44.371Z,16.90
2023-04-22T17:59:12.573Z,16.80
2023-04-22T18:01:40.559Z,16.80
2023-04-22T18:04:08.838Z,16.80
2023-04-22T18:06:36.924Z,16.70
2023-04-22T18:09:06.635Z,16.80
2023-04-22T18:11:34.738Z,16.70
2023-04-22T18:14:02.954Z,16.50
2023-04-22T18:16:31.094Z,16.40
2023-04-22T18:18:59.882Z,16.40
2023-04-22T18:21:29.388Z,16.50
2023-04-22T18:23:57.801Z,16.40
2023-04-22T18:26:27.516Z,16.20
2023-04-22T18:28:55.561Z,16.20
2023-04-22T18:31:23.572Z,16.10
2023-04-22T18:33:51.562Z,16.00
2023-04-22T18:36:19.847Z,15.90
2023-04-22T18:38:47.994Z,15.80
2023-04-22T18:41:16.521Z,15.60
2023-04-22T18:43:47.514Z,15.60
2023-04-22T18:46:15.789Z,15.40
2023-04-22T18:48:44.447Z,15.40
2023-04-22T18:51:13.518Z,15.30
2023-04-22T18:53:41.685Z,15.20
2023-04-22T18:56:09.692Z,15.00
2023-04-22T18:58:37.976Z,14.90
2023-04-22T19:01:08.285Z,14.80
2023-04-22T19:03:36.601Z,14.70
2023-04-22T19:06:05.178Z,14.60
2023-04-22T19:08:33.111Z,14.60
2023-04-22T19:11:01.425Z,14.50
2023-04-22T19:13:30.261Z,14.30
2023-04-22T19:16:00.113Z,14.20
2023-04-22T19:18:29.573Z,14.00
2023-04-22T19:20:57.605Z,13.90
2023-04-22T19:23:25.514Z,13.70
2023-04-22T19:25:53.482Z,13.70
2023-04-22T19:28:21.458Z,13.60
2023-04-22T19:30:49.456Z,13.60
2023-04-22T19:33:17.423Z,13.70
2023-04-22T19:35:46.793Z,13.70
2023-04-22T19:38:18.936Z,13.60
2023-04-22T19:40:47.343Z,13.70
2023-04-22T19:43:16.950Z,13.70
2023-04-22T19:45:45.022Z,13.70
2023-04-22T19:48:13.960Z,13.70
2023-04-22T19:50:44.664Z,13.70
2023-04-22T19:53:14.420Z,13.70
2023-04-22T19:55:44.070Z,13.70
2023-04-22T19:58:12.580Z,13.70
2023-04-22T20:00:42.435Z,13.60
2023-04-22T20:03:13.126Z,13.60
2023-04-22T20:05:42.280Z,13.60
2023-04-22T20:08:11.386Z,13.50
2023-04-22T20:10:41.484Z,13.50
2023-04-22T20:13:10.052Z,13.50
2023-04-22T20:15:38.926Z,13.50
2023-04-22T20:18:07.314Z,13.40
2023-04-22T20:20:35.733Z,13.20
2023-04-22T20:23:10.210Z,13.20
2023-04-22T20:25:44.521Z,13.20
2023-04-22T20:28:13.108Z,13.10
2023-04-22T20:30:41.736Z,13.10
2023-04-22T20:33:12.262Z,13.10
2023-04-22T20:35:41.548Z,13.10
2023-04-22T20:38:13.379Z,13.00
2023-04-22T20:40:46.195Z,13.00
2023-04-22T20:43:14.396Z,13.00
2023-04-22T20:45:43.158Z,12.90
2023-04-22T20:48:11.325Z,12.90
2023-04-22T20:50:39.333Z,12.90
2023-04-22T20:53:07.400Z,12.90
2023-04-22T20:55:37.191Z,13.00
2023-04-22T20:58:06.802Z,13.00
2023-04-22T21:00:35.412Z,13.10
2023-04-22T21:03:05.364Z,13.10
2023-04-22T21:05:40.772Z,13.10
2023-04-22T21:08:21.606Z,13.20
2023-04-22T21:10:50.306Z,13.10
2023-04-22T21:13:20.593Z,13.10
2023-04-22T21:15:57.284Z,13.10
2023-04-22T21:18:26.435Z,13.10
2023-04-22T21:20:56.616Z,13.10
2023-04-22T21:23:25.676Z,13.20
2023-04-22T21:25:56.103Z,13.30
2023-04-22T21:28:25.979Z,13.40
2023-04-22T21:30:54.579Z,13.40
2023-04-22T21:33:23.805Z,13.40
2023-04-22T21:35:52.289Z,13.40
2023-04-22T21:38:20.634Z,13.30
2023-04-22T21:40:48.830Z,13.30
2023-04-22T21:43:16.868Z,13.20
2023-04-22T21:45:46.275Z,13.10
2023-04-22T21:48:14.249Z,13.10
2023-04-22T21:50:42.187Z,13.00
2023-04-22T21:53:10.201Z,13.00
2023-04-22T21:55:38.184Z,13.10
2023-04-22T21:58:06.151Z,13.10
2023-04-22T22:00:34.416Z,13.10
2023-04-22T22:03:03.950Z,13.00
2023-04-22T22:05:32.006Z,13.00
2023-04-22T22:08:00.022Z,13.10
2023-04-22T22:10:28.060Z,13.10
2023-04-22T22:12:56.043Z,13.10
2023-04-22T22:15:24.149Z,13.20
2023-04-22T22:17:52.127Z,13.10
2023-04-22T22:20:21.488Z,13.20
2023-04-22T22:22:49.535Z,13.10
2023-04-22T22:25:17.693Z,13.20
2023-04-22T22:27:47.144Z,13.30
2023-04-22T22:30:16.179Z,13.30
2023-04-22T22:32:44.207Z,13.30
2023-04-22T22:35:12.141Z,13.40
2023-04-22T22:37:41.606Z,13.50
2023-04-22T22:40:11.029Z,13.50
2023-04-22T22:42:39.018Z,13.50
2023-04-22T22:45:07.758Z,13.50
2023-04-22T22:47:36.326Z,13.50
2023-04-22T22:50:04.537Z,13.60
2023-04-22T22:52:32.703Z,13.60
2023-04-22T22:55:02.022Z,13.60
2023-04-22T22:57:30.027Z,13.60
2023-04-22T22:59:57.950Z,13.50
2023-04-22T23:02:26.319Z,13.50
2023-04-22T23:04:54.855Z,13.50
2023-04-22T23:07:22.797Z,13.50
2023-04-22T23:09:50.759Z,13.50
2023-04-22T23:12:20.123Z,13.50
2023-04-22T23:14:48.096Z,13.50
2023-04-22T23:17:17.199Z,13.40
2023-04-22T23:19:45.677Z,13.30
2023-04-22T23:22:14.415Z,13.30
2023-04-22T23:24:43.047Z,13.20
2023-04-22T23:27:11.681Z,13.20
2023-04-22T23:29:42.132Z,13.20
2023-04-22T23:32:13.735Z,13.20
2023-04-22T23:34:45.650Z,13.10
2023-04-22T23:37:16.202Z,13.10
2023-04-22T23:39:44.287Z,13.10
2023-04-22T23:42:12.212Z,13.10
2023-04-22T23:44:41.698Z,13.10
2023-04-22T23:47:09.863Z,13.10
2023-04-22T23:49:37.887Z,13.00
2023-04-22T23:52:07.059Z,13.00
2023-04-22T23:54:35.434Z,12.90
2023-04-22T23:57:03.723Z,12.80
2023-04-22T23:59:32.239Z,12.70
